Time;durP1;ratioP1;P1;durP2;ratioP2;P2;SDS_P1;SDS_P2;PMS_P1;PMS_P2;Temp;Humidity;BMP_temperature;BMP_pressure;BME280_temperature;BME280_humidity;BME280_pressure;Samples;Min_cycle;Max_cycle;Signal;HPM_P1;HPM_P2
2020/12/17 00:02:01;;;;;;;2.00;1.50;;;;;;;20.79;45.28;99765.22;5004597;28;20030;-76
2020/12/17 00:04:27;;;;;;;2.22;1.63;;;;;;;20.80;45.18;99759.03;4999140;28;20030;-77
2020/12/17 00:06:54;;;;;;;3.03;2.00;;;;;;;20.79;45.13;99752.03;5015837;28;20034;-77
2020/12/17 00:09:20;;;;;;;4.53;2.20;;;;;;;20.79;44.99;99754.69;5001748;28;20126;-76
2020/12/17 00:11:46;;;;;;;3.92;1.90;;;;;;;20.79;45.26;99760.81;5001900;28;20491;-79
2020/12/17 00:14:11;;;;;;;2.97;1.77;;;;;;;20.81;45.17;99752.88;5002962;28;20050;-74
2020/12/17 00:16:37;;;;;;;3.88;2.00;;;;;;;20.80;45.06;99764.31;5005046;28;20037;-77
2020/12/17 00:19:04;;;;;;;2.60;1.70;;;;;;;20.79;45.11;99752.94;5003407;28;20089;-78
2020/12/17 00:21:30;;;;;;;3.50;1.88;;;;;;;20.79;45.26;99757.31;5010170;28;20042;-74
2020/12/17 00:23:56;;;;;;;3.53;1.73;;;;;;;20.78;44.98;99771.41;5008986;28;20151;-75
2020/12/17 00:26:27;;;;;;;3.50;1.70;;;;;;;20.77;45.14;99767.91;5007222;28;20026;-76
2020/12/17 00:28:53;;;;;;;3.28;1.60;;;;;;;20.78;45.22;99764.38;5011133;28;20030;-77
2020/12/17 00:31:19;;;;;;;3.80;1.95;;;;;;;20.78;45.20;99764.38;5015066;28;20112;-76
2020/12/17 00:33:46;;;;;;;2.78;1.75;;;;;;;20.78;45.13;99764.38;5008348;28;20502;-76
2020/12/17 00:36:17;;;;;;;2.17;1.50;;;;;;;20.78;44.96;99774.06;5008711;28;20026;-77
2020/12/17 00:38:42;;;;;;;2.10;1.55;;;;;;;20.78;44.99;99760.88;5004187;28;20025;-74
2020/12/17 00:41:10;;;;;;;3.55;1.70;;;;;;;20.79;45.11;99765.22;5005170;28;20172;-77
2020/12/17 00:43:35;;;;;;;2.53;1.75;;;;;;;20.77;45.22;99767.91;5007610;28;20056;-77
2020/12/17 00:46:01;;;;;;;3.38;1.67;;;;;;;20.77;45.07;99761.78;5006093;28;20506;-78
2020/12/17 00:48:26;;;;;;;4.05;1.95;;;;;;;20.76;45.22;99765.34;4997145;28;20027;-78
2020/12/17 00:50:51;;;;;;;2.60;1.40;;;;;;;20.76;45.14;99767.97;5008419;28;20035;-76
2020/12/17 00:53:19;;;;;;;2.60;1.70;;;;;;;20.76;45.26;99774.06;5002148;28;20034;-78
2020/12/17 00:55:44;;;;;;;3.78;1.83;;;;;;;20.75;45.23;99769.72;5013464;28;20034;-75
2020/12/17 00:58:10;;;;;;;2.58;1.52;;;;;;;20.77;45.13;99777.59;5004911;28;20040;-77
2020/12/17 01:00:35;;;;;;;2.65;1.35;;;;;;;20.76;45.22;99778.50;5001294;28;20033;-77
2020/12/17 01:03:03;;;;;;;2.47;1.55;;;;;;;20.75;45.19;99767.09;5011274;28;20070;-75
2020/12/17 01:05:30;;;;;;;3.33;1.70;;;;;;;20.76;45.32;99775.88;5014000;28;20068;-77
2020/12/17 01:07:57;;;;;;;1.80;1.15;;;;;;;20.76;45.11;99773.22;5019132;28;20031;-73
2020/12/17 01:10:25;;;;;;;2.10;1.77;;;;;;;20.77;45.08;99777.59;5010618;28;20041;-77
2020/12/17 01:12:51;;;;;;;1.80;1.45;;;;;;;20.76;45.28;99775.88;5021206;28;20042;-77
2020/12/17 01:15:16;;;;;;;3.05;1.60;;;;;;;20.75;45.26;99769.72;5016661;28;20112;-77
2020/12/17 01:17:42;;;;;;;3.13;2.10;;;;;;;20.76;45.19;99776.72;5012743;28;20026;-75
2020/12/17 01:20:07;;;;;;;6.38;2.20;;;;;;;20.76;45.16;99773.22;5016640;28;20499;-77
2020/12/17 01:22:32;;;;;;;5.18;2.10;;;;;;;20.76;45.22;99776.72;5014305;28;20088;-75
2020/12/17 01:24:58;;;;;;;2.78;1.60;;;;;;;20.78;45.14;99780.16;5008414;28;20045;-76
2020/12/17 01:27:23;;;;;;;2.83;2.00;;;;;;;20.78;45.26;99781.94;5017241;28;20046;-73
2020/12/17 01:29:49;;;;;;;2.83;1.73;;;;;;;20.78;45.27;99779.31;4999304;28;20049;-75
2020/12/17 01:32:15;;;;;;;3.60;2.10;;;;;;;20.76;45.29;99779.34;5011590;28;20030;-76
2020/12/17 01:34:41;;;;;;;4.43;2.10;;;;;;;20.76;45.30;99776.72;5019107;28;20042;-77
2020/12/17 01:37:06;;;;;;;4.13;1.73;;;;;;;20.75;45.31;99782.00;5013099;28;20129;-75
2020/12/17 01:39:31;;;;;;;2.63;1.70;;;;;;;20.75;45.45;99777.63;5017211;28;20052;-77
2020/12/17 01:41:57;;;;;;;4.43;1.63;;;;;;;20.75;45.23;99766.22;5004824;28;20035;-75
2020/12/17 01:44:22;;;;;;;2.72;2.03;;;;;;;20.75;45.14;99774.97;5002850;28;20066;-76
2020/12/17 01:46:48;;;;;;;3.53;2.22;;;;;;;20.76;45.22;99774.06;5002916;28;20041;-76
2020/12/17 01:49:21;;;;;;;4.97;2.00;;;;;;;20.75;45.07;99774.09;5009223;28;20132;-77
2020/12/17 01:51:49;;;;;;;2.80;1.67;;;;;;;20.74;45.33;99769.75;4997714;28;20044;-75
2020/12/17 01:54:14;;;;;;;4.45;2.20;;;;;;;20.75;45.23;99774.97;5008477;28;20074;-75
2020/12/17 01:56:43;;;;;;;2.25;1.77;;;;;;;20.74;45.11;99765.31;5004077;28;20073;-73
2020/12/17 01:59:11;;;;;;;2.78;1.75;;;;;;;20.74;45.17;99767.13;5010269;28;20030;-76
2020/12/17 02:01:42;;;;;;;4.45;2.22;;;;;;;20.74;45.20;99762.69;5010070;28;20063;-77
2020/12/17 02:04:09;;;;;;;4.00;1.92;;;;;;;20.75;45.13;99767.09;5004371;28;20398;-75
2020/12/17 02:06:35;;;;;;;3.33;1.90;;;;;;;20.75;45.22;99753.03;5011300;28;20025;-75
2020/12/17 02:09:03;;;;;;;3.47;1.77;;;;;;;20.75;45.21;99763.56;5013117;28;20569;-76
2020/12/17 02:11:28;;;;;;;2.53;1.33;;;;;;;20.75;45.26;99763.56;5012277;28;20042;-77
2020/12/17 02:13:54;;;;;;;2.60;1.95;;;;;;;20.74;45.11;99753.94;5018761;28;20042;-77
2020/12/17 02:16:19;;;;;;;2.28;1.50;;;;;;;20.74;45.25;99759.22;5013742;28;20161;-78
2020/12/17 02:18:44;;;;;;;2.65;1.63;;;;;;;20.74;45.04;99761.84;5018566;28;20034;-73
2020/12/17 02:21:11;;;;;;;3.95;2.05;;;;;;;20.73;45.11;99749.59;5013674;28;20038;-73
2020/12/17 02:23:38;;;;;;;2.72;1.48;;;;;;;20.73;45.24;99757.50;5004565;28;20022;-76
2020/12/17 02:26:05;;;;;;;2.70;1.83;;;;;;;20.73;45.04;99757.50;5010389;28;20054;-76
2020/12/17 02:28:30;;;;;;;3.60;1.52;;;;;;;20.73;45.12;99766.22;5011993;28;20072;-74
2020/12/17 02:30:55;;;;;;;2.05;1.40;;;;;;;20.73;45.09;99765.38;5007802;28;20046;-76
2020/12/17 02:33:21;;;;;;;2.42;1.58;;;;;;;20.72;45.24;99767.13;5001005;28;20087;-76
2020/12/17 02:35:46;;;;;;;2.25;1.35;;;;;;;20.72;45.24;99761.03;5016710;28;20080;-77
2020/12/17 02:38:12;;;;;;;2.10;1.60;;;;;;;20.71;45.12;99760.16;4996468;28;20031;-77
2020/12/17 02:40:37;;;;;;;3.35;1.60;;;;;;;20.71;45.12;99754.03;4997261;28;20100;-75
2020/12/17 02:43:03;;;;;;;2.22;1.42;;;;;;;20.71;45.29;99754.03;4997288;28;20058;-77
2020/12/17 02:45:29;;;;;;;2.88;1.75;;;;;;;20.72;45.25;99753.13;5014779;28;20154;-76
2020/12/17 02:47:54;;;;;;;2.35;1.73;;;;;;;20.69;45.29;99741.78;4996936;28;20394;-77
2020/12/17 02:50:20;;;;;;;2.20;1.45;;;;;;;20.70;45.14;99753.19;5003049;28;20502;-76
2020/12/17 02:52:45;;;;;;;4.03;1.90;;;;;;;20.70;45.22;99750.56;5006198;28;20038;-74
2020/12/17 02:55:11;;;;;;;2.33;1.60;;;;;;;20.69;45.01;99749.69;5011263;28;20031;-75
2020/12/17 02:57:37;;;;;;;2.05;1.58;;;;;;;20.71;45.03;99759.31;5006802;28;20513;-76
2020/12/17 03:00:10;;;;;;;4.50;1.88;;;;;;;20.68;44.97;99766.38;5008087;28;20044;-77
2020/12/17 03:02:35;;;;;;;3.10;1.77;;;;;;;20.69;45.08;99767.25;5005602;28;20022;-72
2020/12/17 03:05:01;;;;;;;3.47;1.80;;;;;;;20.71;45.31;99761.94;5001202;28;20390;-73
2020/12/17 03:07:26;;;;;;;3.50;1.30;;;;;;;20.71;45.12;99761.94;5007106;28;20487;-75
2020/12/17 03:09:52;;;;;;;3.03;1.63;;;;;;;20.68;45.24;99766.38;5005424;28;20022;-76
2020/12/17 03:12:18;;;;;;;2.55;1.65;;;;;;;20.68;45.04;99766.38;5000789;28;20041;-76
2020/12/17 03:14:43;;;;;;;3.70;1.60;;;;;;;20.69;45.01;99765.47;5001954;28;20034;-76
2020/12/17 03:17:08;;;;;;;2.65;1.73;;;;;;;20.69;45.01;99769.88;5003351;28;20062;-77
2020/12/17 03:19:34;;;;;;;3.75;1.40;;;;;;;20.68;45.12;99757.63;5004499;28;20117;-75
2020/12/17 03:22:00;;;;;;;2.05;1.65;;;;;;;20.68;45.11;99762.91;5005922;28;20121;-73
2020/12/17 03:24:25;;;;;;;2.22;1.63;;;;;;;20.68;45.04;99758.47;5009824;28;20077;-75
2020/12/17 03:26:52;;;;;;;2.33;1.50;;;;;;;20.67;45.33;99762.03;4999677;28;20109;-75
2020/12/17 03:29:18;;;;;;;2.88;1.60;;;;;;;20.68;45.13;99763.75;5007866;28;20077;-74
2020/12/17 03:31:43;;;;;;;2.60;1.30;;;;;;;20.68;45.24;99757.63;5006450;28;20065;-76
2020/12/17 03:34:09;;;;;;;1.88;1.25;;;;;;;20.69;45.23;99770.75;4999492;28;20049;-78
2020/12/17 03:36:34;;;;;;;1.67;0.95;;;;;;;20.68;45.02;99766.38;4996069;28;20063;-76
2020/12/17 03:38:59;;;;;;;2.75;1.50;;;;;;;20.67;45.21;99769.91;5002950;28;20030;-74
2020/12/17 03:41:25;;;;;;;1.88;1.38;;;;;;;20.68;45.13;99768.16;5001386;28;20049;-77
2020/12/17 03:43:50;;;;;;;2.50;1.45;;;;;;;20.67;45.13;99763.81;5005115;28;20061;-77
2020/12/17 03:46:15;;;;;;;2.78;1.85;;;;;;;20.67;45.01;99767.28;5000754;28;20030;-76
2020/12/17 03:48:41;;;;;;;2.15;1.23;;;;;;;20.66;45.27;99762.09;5004492;28;20050;-77
2020/12/17 03:51:06;;;;;;;2.30;1.50;;;;;;;20.66;45.09;99767.34;4995508;28;20479;-76
2020/12/17 03:53:32;;;;;;;2.50;1.50;;;;;;;20.67;45.02;99762.03;5001131;28;20064;-75
2020/12/17 03:55:57;;;;;;;2.60;1.50;;;;;;;20.67;45.20;99782.22;5001171;28;20058;-73
2020/12/17 03:58:22;;;;;;;2.80;1.42;;;;;;;20.65;45.02;99777.00;4992737;28;20027;-76
2020/12/17 04:00:48;;;;;;;2.60;1.27;;;;;;;20.65;45.19;99779.63;4996775;28;20033;-77
2020/12/17 04:03:13;;;;;;;2.55;1.60;;;;;;;20.65;45.16;99779.63;5001348;28;20037;-76
2020/12/17 04:05:39;;;;;;;2.83;1.40;;;;;;;20.68;45.09;99783.97;4992800;28;20045;-77
2020/12/17 04:08:04;;;;;;;2.33;1.42;;;;;;;20.67;45.06;99790.13;5000830;28;20050;-77
2020/12/17 04:10:29;;;;;;;2.35;1.40;;;;;;;20.67;44.95;99784.88;5002978;28;20470;-73
2020/12/17 04:12:55;;;;;;;2.28;1.35;;;;;;;20.67;45.19;99792.75;4998222;28;20040;-73
2020/12/17 04:15:20;;;;;;;1.55;1.13;;;;;;;20.65;45.19;99787.53;4996380;28;20069;-73
2020/12/17 04:17:46;;;;;;;1.52;1.17;;;;;;;20.66;44.82;99791.03;5000425;28;20499;-75
2020/12/17 04:20:12;;;;;;;3.58;1.48;;;;;;;20.66;44.84;99796.31;4999788;28;20089;-74
2020/12/17 04:22:38;;;;;;;3.58;1.70;;;;;;;20.66;45.01;99798.94;4999602;28;20101;-75
2020/12/17 04:25:03;;;;;;;2.15;1.35;;;;;;;20.65;45.25;99795.44;4998414;28;20101;-76
2020/12/17 04:27:30;;;;;;;2.97;1.48;;;;;;;20.64;44.99;99793.69;4997461;28;20030;-77
2020/12/17 04:29:55;;;;;;;3.08;1.50;;;;;;;20.63;45.05;99799.88;5005692;28;20490;-74
2020/12/17 04:32:21;;;;;;;3.33;1.45;;;;;;;20.65;45.04;99803.31;4998442;28;20027;-76
2020/12/17 04:34:47;;;;;;;2.05;1.42;;;;;;;20.65;45.03;99803.31;5003856;28;20565;-75
2020/12/17 04:37:12;;;;;;;2.90;1.75;;;;;;;20.65;45.08;99813.84;4996029;28;20404;-76
2020/12/17 04:39:38;;;;;;;2.60;1.17;;;;;;;20.63;44.97;99807.75;4998323;28;20026;-76
2020/12/17 04:42:05;;;;;;;2.70;1.38;;;;;;;20.64;45.22;99819.19;4992018;28;20246;-77
2020/12/17 04:44:31;;;;;;;2.58;1.48;;;;;;;20.64;45.08;99821.81;5000076;28;20038;-73
2020/12/17 04:47:05;;;;;;;2.17;1.40;;;;;;;20.62;45.14;99819.25;4995307;28;20065;-76
2020/12/17 04:49:33;;;;;;;;;;;;;;;20.59;44.98;99824.59;4997654;28;20038;-76
2020/12/17 04:51:58;;;;;;;3.75;1.83;;;;;;;20.63;45.21;99839.34;4997286;28;19925;-78
2020/12/17 04:54:24;;;;;;;1.88;1.30;;;;;;;20.63;44.94;99841.16;5001875;28;20040;-73
2020/12/17 04:57:11;;;;;;;2.20;1.17;;;;;;;20.62;44.99;99847.31;5001684;28;20040;-77
2020/12/17 04:59:44;;;;;;;2.75;1.42;;;;;;;20.63;45.13;99860.41;5009777;28;20108;-76
2020/12/17 05:02:10;;;;;;;2.30;1.33;;;;;;;20.62;44.91;99853.47;4997292;28;20519;-74
2020/12/17 05:04:37;;;;;;;2.10;1.30;;;;;;;20.62;45.02;99857.84;4996154;28;20084;-75
2020/12/17 05:07:07;;;;;;;2.15;1.38;;;;;;;20.62;45.09;99865.75;4996332;28;20033;-76
2020/12/17 05:09:33;;;;;;;3.65;1.60;;;;;;;20.62;45.31;99878.91;4995624;28;20031;-77
2020/12/17 05:11:59;;;;;;;3.42;1.42;;;;;;;20.62;45.36;99877.16;5001788;28;20519;-75
2020/12/17 05:14:28;;;;;;;2.33;1.13;;;;;;;20.62;45.04;99887.69;4996629;28;20037;-77
2020/12/17 05:16:54;;;;;;;3.88;1.40;;;;;;;20.63;45.16;99883.25;4995964;28;20044;-76
2020/12/17 05:19:20;;;;;;;2.47;1.58;;;;;;;20.64;45.26;99892.91;4996185;28;20053;-73
2020/12/17 05:21:46;;;;;;;2.95;1.60;;;;;;;20.65;45.00;99897.25;5008894;28;20042;-78
2020/12/17 05:24:11;;;;;;;2.28;1.50;;;;;;;20.66;45.25;99907.72;4993873;28;20554;-76
2020/12/17 05:26:39;;;;;;;2.95;1.50;;;;;;;20.63;45.05;99905.19;4994841;28;20030;-77
2020/12/17 05:29:04;;;;;;;2.10;1.33;;;;;;;20.64;45.20;99906.91;4994368;28;20096;-76
2020/12/17 05:31:34;;;;;;;1.55;1.17;;;;;;;20.63;44.96;99923.59;4997020;28;20038;-75
2020/12/17 05:34:03;;;;;;;1.98;1.27;;;;;;;20.63;45.05;99931.50;5013326;28;20046;-75
2020/12/17 05:36:30;;;;;;;4.50;1.33;;;;;;;20.64;45.02;99935.03;4995612;28;20129;-77
2020/12/17 05:39:03;;;;;;;2.20;1.25;;;;;;;20.64;44.96;99938.50;4999247;28;20104;-75
2020/12/17 05:41:30;;;;;;;1.63;1.00;;;;;;;20.62;44.89;99945.59;4998715;28;20030;-75
2020/12/17 05:44:06;;;;;;;1.90;1.55;;;;;;;20.64;45.17;99945.56;4992669;28;20042;-75
2020/12/17 05:46:36;;;;;;;2.30;1.38;;;;;;;20.63;44.98;99947.31;5002527;28;20031;-75
2020/12/17 05:49:20;;;;;;;2.20;1.40;;;;;;;20.61;45.02;99949.13;4997066;28;20068;-75
2020/12/17 05:51:46;;;;;;;2.38;1.35;;;;;;;20.62;44.97;99945.59;4993314;28;20117;-75
2020/12/17 05:54:21;;;;;;;2.40;1.58;;;;;;;20.61;44.90;99943.88;5004664;28;20443;-76
2020/12/17 05:56:48;;;;;;;3.03;1.35;;;;;;;20.61;44.97;99954.41;5013896;28;20125;-73
2020/12/17 05:59:21;;;;;;;1.95;1.35;;;;;;;20.61;45.15;99949.13;5001601;28;20502;-76
2020/12/17 06:01:48;;;;;;;1.95;1.20;;;;;;;20.60;45.08;99957.06;4999436;28;20038;-77
2020/12/17 06:04:15;;;;;;;1.70;1.05;;;;;;;20.61;45.18;99954.41;5000096;28;20030;-77
2020/12/17 06:06:47;;;;;;;2.67;1.25;;;;;;;20.61;45.17;99961.41;4996484;28;20039;-72
2020/12/17 06:09:35;;;;;;;1.98;1.40;;;;;;;20.58;45.16;99972.91;4997547;28;20042;-76
2020/12/17 06:12:01;;;;;;;3.10;1.60;;;;;;;20.61;45.28;99964.06;5007619;28;20049;-71
2020/12/17 06:14:30;;;;;;;2.78;1.40;;;;;;;20.62;45.21;99971.94;5000941;28;20150;-75
2020/12/17 06:16:58;;;;;;;1.75;1.33;;;;;;;20.60;45.05;99973.75;4995373;28;20045;-77
2020/12/17 06:19:23;;;;;;;2.20;1.27;;;;;;;20.61;45.04;99979.84;5003658;28;20487;-75
2020/12/17 06:21:50;;;;;;;2.25;1.35;;;;;;;20.61;45.08;99988.63;5000288;28;20038;-73
2020/12/17 06:24:18;;;;;;;2.20;1.40;;;;;;;20.63;44.95;99996.47;5000300;28;20105;-75
2020/12/17 06:26:50;;;;;;;1.65;1.10;;;;;;;20.61;45.10;99998.28;4997022;28;20479;-76
2020/12/17 06:29:18;;;;;;;2.00;1.13;;;;;;;20.60;45.17;100007.97;5001292;28;20077;-76
2020/12/17 06:31:54;;;;;;;3.25;1.20;;;;;;;20.60;45.02;100007.97;4999606;28;20056;-75
2020/12/17 06:34:20;;;;;;;2.63;1.30;;;;;;;20.63;44.97;100004.38;4994804;28;20038;-78
2020/12/17 06:36:58;;;;;;;4.43;1.65;;;;;;;20.62;45.15;100002.66;4991664;28;20487;-76
2020/12/17 06:39:24;;;;;;;6.72;1.55;;;;;;;20.67;45.17;100001.63;4995810;28;20026;-76
2020/12/17 06:41:50;;;;;;;7.75;2.00;;;;;;;20.68;45.23;100019.13;5002187;28;20095;-76
2020/12/17 06:44:32;;;;;;;23.35;1.63;;;;;;;20.68;45.36;100021.78;4998794;28;20106;-75
2020/12/17 06:47:07;;;;;;;9.18;2.15;;;;;;;20.70;45.18;100016.50;4999093;28;20046;-75
2020/12/17 06:49:32;;;;;;;27.38;2.42;;;;;;;20.73;45.27;100020.78;5002970;28;20508;-76
2020/12/17 06:52:07;;;;;;;7.80;1.70;;;;;;;20.73;45.21;100018.16;5006543;28;20038;-75
2020/12/17 06:54:41;;;;;;;4.85;1.65;;;;;;;20.73;45.21;100024.28;5006880;28;20546;-77
2020/12/17 06:57:16;;;;;;;5.53;1.70;;;;;;;20.78;45.27;100030.34;5008625;28;20040;-73
2020/12/17 07:00:01;;;;;;;7.25;1.73;;;;;;;20.79;45.51;100036.44;5010074;28;20034;-75
2020/12/17 07:02:39;;;;;;;9.98;2.28;;;;;;;20.77;45.45;100038.28;5004249;28;20042;-74
2020/12/17 07:05:04;;;;;;;9.00;1.50;;;;;;;20.78;45.44;100043.50;5000957;28;20030;-75
2020/12/17 07:07:43;;;;;;;6.78;1.85;;;;;;;20.78;45.32;100048.75;5003439;28;20041;-77
2020/12/17 07:10:24;;;;;;;7.97;2.00;;;;;;;20.79;45.48;100063.66;5003875;28;20043;-75
2020/12/17 07:12:50;;;;;;;9.70;2.05;;;;;;;20.82;45.45;100060.06;5001396;28;20569;-77
2020/12/17 07:15:30;;;;;;;9.65;1.60;;;;;;;20.80;45.38;100065.41;5001892;28;20070;-75
2020/12/17 07:18:18;;;;;;;12.88;2.22;;;;;;;20.81;45.42;100079.41;4998030;28;20034;-73
2020/12/17 07:20:44;;;;;;;14.63;1.90;;;;;;;20.82;45.74;100073.25;4994544;28;20049;-78
2020/12/17 07:23:10;;;;;;;19.20;2.95;;;;;;;20.83;45.77;100075.84;4994542;28;20047;-74
2020/12/17 07:25:38;;;;;;;9.85;2.10;;;;;;;20.83;45.67;100083.75;5009477;28;20035;-75
2020/12/17 07:28:06;;;;;;;11.02;2.28;;;;;;;20.84;45.70;100092.50;5032655;28;20030;-75
2020/12/17 07:30:32;;;;;;;14.75;2.70;;;;;;;20.81;45.74;100093.47;5032481;28;20438;-78
2020/12/17 07:32:57;;;;;;;8.82;2.15;;;;;;;20.84;45.64;100097.78;5033575;28;20120;-76
2020/12/17 07:35:26;;;;;;;15.60;1.75;;;;;;;20.83;45.51;100104.81;5033630;28;20037;-77
2020/12/17 07:37:53;;;;;;;15.18;2.10;;;;;;;20.81;45.62;100101.38;5033283;28;20040;-75
2020/12/17 07:40:20;;;;;;;9.10;1.85;;;;;;;20.82;45.69;100105.72;5029795;28;20092;-78
2020/12/17 07:42:56;;;;;;;14.55;2.05;;;;;;;20.79;45.54;100104.91;5013871;28;20108;-77
2020/12/17 07:45:55;;;;;;;10.30;1.83;;;;;;;20.78;45.24;100111.13;5013723;28;20030;-74
2020/12/17 07:48:44;;;;;;;9.02;1.88;;;;;;;20.75;45.47;100112.03;5012852;28;20490;-77
2020/12/17 07:51:15;;;;;;;11.05;1.60;;;;;;;20.77;45.70;100114.66;5013757;28;20073;-76
2020/12/17 07:53:41;;;;;;;10.02;1.92;;;;;;;20.76;45.54;100116.41;5011640;28;20045;-76
2020/12/17 07:56:07;;;;;;;9.07;1.67;;;;;;;20.79;45.29;100113.69;4994227;28;20117;-74
2020/12/17 07:58:34;;;;;;;4.75;1.40;;;;;;;20.81;45.57;100117.16;4999421;28;20113;-77
2020/12/17 08:01:00;;;;;;;6.32;1.23;;;;;;;20.77;45.62;100122.56;5008155;28;20066;-78
2020/12/17 08:03:25;;;;;;;3.83;1.63;;;;;;;20.77;45.40;100139.19;4991067;28;20064;-77
2020/12/17 08:06:08;;;;;;;5.30;1.63;;;;;;;20.76;45.40;100144.53;4997130;28;20414;-77
2020/12/17 08:08:33;;;;;;;5.68;1.65;;;;;;;20.76;45.37;100139.25;4994340;28;20153;-78
2020/12/17 08:11:03;;;;;;;11.75;1.80;;;;;;;20.75;45.53;100143.63;4999273;28;20055;-74
2020/12/17 08:13:29;;;;;;;9.75;2.08;;;;;;;20.77;45.38;100154.16;5001404;28;20042;-77
2020/12/17 08:15:55;;;;;;;5.20;1.67;;;;;;;20.75;45.29;100151.53;4992659;28;20053;-72
2020/12/17 08:18:28;;;;;;;4.03;1.67;;;;;;;20.74;45.42;100154.19;4994331;28;20030;-75
2020/12/17 08:21:04;;;;;;;2.47;1.20;;;;;;;20.76;45.42;100152.41;4994888;28;20047;-74
2020/12/17 08:23:32;;;;;;;4.85;1.77;;;;;;;20.77;45.34;100162.06;4991363;28;20030;-76
2020/12/17 08:26:01;;;;;;;2.75;1.48;;;;;;;20.77;45.47;100164.69;4996178;28;20037;-73
2020/12/17 08:28:35;;;;;;;8.32;1.40;;;;;;;20.77;45.18;100164.69;5031834;28;20040;-75
2020/12/17 08:31:03;;;;;;;7.10;1.45;;;;;;;21.15;44.68;100162.84;5031855;28;20033;-71
2020/12/17 08:33:29;;;;;;;3.83;1.30;;;;;;;21.33;44.25;100173.81;5031444;28;20076;-76
2020/12/17 08:36:01;;;;;;;4.10;1.55;;;;;;;21.34;44.57;100180.81;5031686;28;20060;-76
2020/12/17 08:38:26;;;;;;;5.22;1.55;;;;;;;21.18;44.77;100177.72;5030418;28;20025;-74
2020/12/17 08:40:55;;;;;;;3.60;1.38;;;;;;;21.05;44.84;100185.06;5031470;28;20133;-77
2020/12/17 08:43:21;;;;;;;3.72;1.30;;;;;;;20.97;44.98;100185.25;5027351;28;20178;-73
2020/12/17 08:45:53;;;;;;;3.35;1.00;;;;;;;20.91;45.00;100195.94;5008068;28;20112;-76
2020/12/17 08:48:19;;;;;;;4.22;1.25;;;;;;;20.89;45.38;100196.00;4995223;28;20033;-75
2020/12/17 08:50:46;;;;;;;2.88;1.10;;;;;;;20.89;45.41;100196.00;5002064;28;20108;-78
2020/12/17 08:53:27;;;;;;;5.32;1.08;;;;;;;21.30;44.57;100207.25;4997230;28;20501;-75
2020/12/17 08:56:12;;;;;;;2.30;1.17;;;;;;;21.12;44.71;100207.72;4996172;28;20034;-74
2020/12/17 08:59:01;;;;;;;6.55;1.50;;;;;;;21.03;44.94;100210.59;4996583;28;20046;-76
2020/12/17 09:01:28;;;;;;;3.40;1.02;;;;;;;22.71;41.79;100210.31;4991599;28;20027;-74
2020/12/17 09:03:54;;;;;;;3.95;1.10;;;;;;;22.39;41.98;100204.25;4992400;28;20038;-74
2020/12/17 09:06:29;;;;;;;3.08;1.25;;;;;;;22.88;42.07;100216.84;4991991;28;20057;-76
2020/12/17 09:09:10;;;;;;;2.63;1.38;;;;;;;23.30;40.69;100207.56;4992355;28;20093;-74
2020/12/17 09:11:36;;;;;;;3.38;1.00;;;;;;;23.95;39.62;100222.00;4992081;28;20055;-74
2020/12/17 09:14:07;;;;;;;2.83;1.30;;;;;;;23.97;40.13;100224.66;4992374;28;20042;-75
2020/12/17 09:16:34;;;;;;;3.17;1.40;;;;;;;25.21;37.65;100231.28;4997720;28;20042;-72
2020/12/17 09:19:06;;;;;;;1.95;1.05;;;;;;;24.75;38.18;100233.16;5011714;28;20042;-75
2020/12/17 09:21:32;;;;;;;3.25;1.45;;;;;;;23.75;40.43;100235.09;5011731;28;20034;-77
2020/12/17 09:23:59;;;;;;;4.05;1.23;;;;;;;23.25;41.38;100242.97;5027142;28;20383;-74
2020/12/17 09:26:26;;;;;;;2.08;1.10;;;;;;;23.01;41.88;100249.88;5011511;28;20033;-76
2020/12/17 09:29:03;;;;;;;3.17;1.23;;;;;;;22.87;42.35;100247.72;5011958;28;20034;-75
2020/12/17 09:31:34;;;;;;;2.33;0.98;;;;;;;22.77;42.66;100255.06;5013761;28;20034;-73
2020/12/17 09:34:03;;;;;;;3.10;1.15;;;;;;;22.73;42.81;100268.41;5012793;28;20038;-73
2020/12/17 09:36:28;;;;;;;1.83;1.10;;;;;;;22.71;42.92;100265.81;4995280;28;20038;-76
2020/12/17 09:39:23;;;;;;;2.22;1.20;;;;;;;22.46;43.46;100279.75;5014639;28;20064;-76
2020/12/17 09:41:57;;;;;;;2.33;1.33;;;;;;;22.26;43.68;100287.34;5005316;28;20084;-75
2020/12/17 09:44:33;;;;;;;2.67;1.05;;;;;;;22.08;43.92;100280.84;4995928;28;20050;-76
2020/12/17 09:47:00;;;;;;;3.78;1.67;;;;;;;22.01;44.12;100282.78;4995126;28;20042;-72
2020/12/17 09:49:34;;;;;;;5.03;2.80;;;;;;;22.02;44.09;100290.66;4997390;28;20031;-73
2020/12/17 09:52:12;;;;;;;7.80;3.22;;;;;;;22.00;44.10;100283.69;5009142;28;20114;-73
2020/12/17 09:54:42;;;;;;;5.22;3.17;;;;;;;22.07;43.96;100302.84;5015070;28;20034;-75
2020/12/17 09:57:11;;;;;;;7.47;3.20;;;;;;;22.00;43.99;100304.78;5010566;28;20104;-75
2020/12/17 09:59:37;;;;;;;6.25;3.35;;;;;;;21.99;44.02;100300.44;4995137;28;20072;-72
2020/12/17 10:02:04;;;;;;;5.45;3.20;;;;;;;22.07;43.86;100308.97;5026552;28;20561;-76
2020/12/17 10:04:30;;;;;;;6.03;3.65;;;;;;;22.08;43.89;100307.22;4995227;28;20478;-76
2020/12/17 10:06:57;;;;;;;6.63;4.20;;;;;;;21.99;44.13;100305.69;4995064;28;20407;-73
2020/12/17 10:09:23;;;;;;;5.75;3.40;;;;;;;21.93;44.11;100316.41;4993695;28;20034;-76
2020/12/17 10:11:51;;;;;;;7.53;3.85;;;;;;;21.92;44.05;100312.03;5026564;28;20034;-72
2020/12/17 10:14:17;;;;;;;6.97;3.70;;;;;;;21.97;43.88;100318.06;4995058;28;20042;-72
2020/12/17 10:16:44;;;;;;;8.98;5.10;;;;;;;21.92;44.10;100315.56;5002259;28;20065;-76
2020/12/17 10:19:10;;;;;;;7.95;4.65;;;;;;;21.95;44.06;100319.88;4997719;28;20556;-75
2020/12/17 10:21:36;;;;;;;8.13;5.53;;;;;;;21.94;43.96;100308.47;4995044;28;20562;-74
2020/12/17 10:24:03;;;;;;;12.82;7.93;;;;;;;21.98;43.92;100311.88;4993497;28;20069;-73
2020/12/17 10:26:29;;;;;;;18.42;11.02;;;;;;;21.96;44.02;100311.91;5006125;28;20025;-76
2020/12/17 10:28:55;;;;;;;19.00;11.15;;;;;;;21.97;44.11;100316.28;5034018;28;20034;-75
2020/12/17 10:31:20;;;;;;;19.20;10.85;;;;;;;21.95;43.93;100317.25;5033966;28;20405;-76
2020/12/17 10:33:45;;;;;;;20.33;11.73;;;;;;;22.01;43.90;100320.56;5032867;28;20037;-76
2020/12/17 10:36:11;;;;;;;15.73;9.95;;;;;;;22.04;43.78;100323.13;5007941;28;20101;-74
2020/12/17 10:38:36;;;;;;;16.55;10.52;;;;;;;22.04;43.75;100320.50;5013224;28;20030;-74
2020/12/17 10:41:02;;;;;;;17.25;9.98;;;;;;;22.02;43.80;100321.47;5010688;28;20041;-72
2020/12/17 10:43:27;;;;;;;15.10;9.52;;;;;;;22.00;43.91;100328.53;5013757;28;20453;-72
2020/12/17 10:45:52;;;;;;;15.32;9.50;;;;;;;21.97;44.10;100333.91;5008751;28;20041;-73
2020/12/17 10:48:18;;;;;;;15.23;9.27;;;;;;;22.03;43.85;100328.47;4994387;28;20096;-76
2020/12/17 10:50:43;;;;;;;14.70;9.20;;;;;;;22.02;43.88;100337.28;4999932;28;20029;-74
2020/12/17 10:53:09;;;;;;;13.73;8.63;;;;;;;22.02;43.88;100329.38;5013877;28;20033;-73
2020/12/17 10:55:34;;;;;;;13.95;8.77;;;;;;;22.03;43.89;100336.38;5013798;28;20123;-73
2020/12/17 10:57:59;;;;;;;12.82;7.57;;;;;;;22.02;43.81;100329.38;5012256;28;20048;-74
2020/12/17 11:00:25;;;;;;;13.88;7.80;;;;;;;22.02;43.92;100326.72;5013443;28;20049;-75
2020/12/17 11:02:50;;;;;;;11.38;7.05;;;;;;;22.03;43.78;100331.09;5013775;28;20038;-75
2020/12/17 11:05:15;;;;;;;12.88;7.22;;;;;;;22.03;43.83;100323.19;5013861;28;20112;-73
2020/12/17 11:07:41;;;;;;;10.98;7.20;;;;;;;22.02;43.79;100324.94;5013486;28;20501;-74
2020/12/17 11:10:06;;;;;;;10.98;7.03;;;;;;;22.00;43.92;100326.75;5013247;28;20470;-75
2020/12/17 11:12:31;;;;;;;10.07;6.53;;;;;;;22.05;43.78;100318.72;5028563;28;20112;-75
2020/12/17 11:14:57;;;;;;;10.25;6.45;;;;;;;22.05;43.61;100321.34;5013443;28;20419;-76
2020/12/17 11:17:22;;;;;;;11.60;6.38;;;;;;;22.06;43.67;100328.34;5013037;28;20042;-76
2020/12/17 11:19:48;;;;;;;8.95;5.72;;;;;;;22.05;43.60;100334.53;5007237;28;20038;-75
2020/12/17 11:22:13;;;;;;;10.10;5.80;;;;;;;22.07;43.39;100340.66;5004706;28;20041;-73
2020/12/17 11:24:39;;;;;;;12.52;5.60;;;;;;;22.03;43.54;100331.09;5002882;28;20030;-80
2020/12/17 11:27:04;;;;;;;11.68;5.57;;;;;;;22.00;43.57;100339.94;5011922;28;20088;-74
2020/12/17 11:29:30;;;;;;;11.77;5.35;;;;;;;21.99;43.38;100337.38;5033311;28;20041;-74
2020/12/17 11:31:55;;;;;;;9.38;5.30;;;;;;;22.01;43.44;100335.56;5031906;28;20112;-73
2020/12/17 11:34:21;;;;;;;11.20;4.82;;;;;;;21.95;43.29;100341.88;4998431;28;20510;-73